createdAt,value
2018-02-17T00:02:22.909Z,9.53
2018-02-17T00:04:50.507Z,10.47
2018-02-17T00:07:18.069Z,9.97
2018-02-17T00:09:45.856Z,10.00
2018-02-17T00:12:13.463Z,10.00
2018-02-17T00:14:41.040Z,13.03
2018-02-17T00:17:08.630Z,8.13
2018-02-17T00:19:36.212Z,9.43
2018-02-17T00:22:03.798Z,9.40
2018-02-17T00:24:31.361Z,7.60
2018-02-17T00:26:58.945Z,7.60
2018-02-17T00:29:26.508Z,7.40
2018-02-17T00:31:54.100Z,7.37
2018-02-17T00:34:21.725Z,6.73
2018-02-17T00:36:49.313Z,5.70
2018-02-17T00:39:16.873Z,8.10
2018-02-17T00:41:44.468Z,7.00
2018-02-17T00:44:12.033Z,8.20
2018-02-17T00:46:39.618Z,9.53
2018-02-17T00:49:07.194Z,19.00
2018-02-17T00:51:34.782Z,17.63
2018-02-17T00:54:02.358Z,11.70
2018-02-17T00:56:29.965Z,13.83
2018-02-17T00:58:58.481Z,8.60
2018-02-17T01:01:26.069Z,12.37
2018-02-17T01:03:53.636Z,8.07
2018-02-17T01:06:21.989Z,8.57
2018-02-17T01:08:49.553Z,8.57
2018-02-17T01:11:17.144Z,8.33
2018-02-17T01:13:44.713Z,9.40
2018-02-17T01:16:12.297Z,8.80
2018-02-17T01:18:39.860Z,10.43
2018-02-17T01:21:07.454Z,11.97
2018-02-17T01:23:35.053Z,12.80
2018-02-17T01:26:02.822Z,12.33
2018-02-17T01:28:30.408Z,13.43
2018-02-17T01:30:57.985Z,15.00
2018-02-17T01:33:25.577Z,15.30
2018-02-17T01:35:53.922Z,16.47
2018-02-17T01:38:21.525Z,13.33
2018-02-17T01:40:49.860Z,14.13
2018-02-17T01:43:17.455Z,13.80
2018-02-17T01:45:45.046Z,16.17
2018-02-17T01:48:12.629Z,14.60
2018-02-17T01:50:40.822Z,14.40
2018-02-17T01:53:09.203Z,15.20
2018-02-17T01:55:36.777Z,16.50
2018-02-17T01:58:04.386Z,16.57
2018-02-17T02:00:31.953Z,14.40
2018-02-17T02:02:59.553Z,15.90
2018-02-17T02:05:27.127Z,12.13
2018-02-17T02:07:55.485Z,14.57
2018-02-17T02:10:23.052Z,17.40
2018-02-17T02:12:50.652Z,15.80
2018-02-17T02:15:18.223Z,15.90
2018-02-17T02:17:45.812Z,15.63
2018-02-17T02:20:13.390Z,13.77
2018-02-17T02:22:41.758Z,13.50
2018-02-17T02:25:09.325Z,16.73
2018-02-17T02:27:36.922Z,13.53
2018-02-17T02:30:04.742Z,11.53
2018-02-17T02:32:32.337Z,13.50
2018-02-17T02:34:59.936Z,12.07
2018-02-17T02:37:27.543Z,14.30
2018-02-17T02:39:55.915Z,13.67
2018-02-17T02:42:23.497Z,14.40
2018-02-17T02:44:51.094Z,11.77
2018-02-17T02:47:18.656Z,13.73
2018-02-17T02:49:47.008Z,13.70
2018-02-17T02:52:14.573Z,14.27
2018-02-17T02:54:42.163Z,16.20
2018-02-17T02:57:09.897Z,15.40
2018-02-17T02:59:37.476Z,8.03
2018-02-17T03:02:05.805Z,8.10
2018-02-17T03:04:33.411Z,10.80
2018-02-17T03:07:00.973Z,10.90
2018-02-17T03:09:28.564Z,10.20
2018-02-17T03:11:56.138Z,11.03
2018-02-17T03:14:24.488Z,11.00
2018-02-17T03:16:52.048Z,10.30
2018-02-17T03:19:19.667Z,11.20
2018-02-17T03:21:47.229Z,10.63
2018-02-17T03:24:14.812Z,12.00
2018-02-17T03:26:42.382Z,8.93
2018-02-17T03:29:09.970Z,8.23
2018-02-17T03:31:38.304Z,8.60
2018-02-17T03:34:05.904Z,6.27
2018-02-17T03:36:33.469Z,5.23
2018-02-17T03:39:01.060Z,5.07
2018-02-17T03:41:28.634Z,4.33
2018-02-17T03:43:56.217Z,4.13
2018-02-17T03:46:23.784Z,4.23
2018-02-17T03:48:51.374Z,3.67
2018-02-17T03:51:18.953Z,4.37
2018-02-17T03:53:46.518Z,5.17
2018-02-17T03:56:14.119Z,4.90
2018-02-17T03:58:41.694Z,4.73
2018-02-17T04:01:09.276Z,5.03
2018-02-17T04:03:36.833Z,4.03
2018-02-17T04:06:04.421Z,4.50
2018-02-17T04:08:31.990Z,4.80
2018-02-17T04:10:59.573Z,5.70
2018-02-17T04:13:27.180Z,4.47
2018-02-17T04:15:54.775Z,4.57
2018-02-17T04:18:22.345Z,3.93
2018-02-17T04:20:49.937Z,4.50
2018-02-17T04:23:17.492Z,4.53
2018-02-17T04:25:45.083Z,4.20
2018-02-17T04:28:12.657Z,4.43
2018-02-17T04:30:40.239Z,3.43
2018-02-17T04:33:07.806Z,4.40
2018-02-17T04:35:35.403Z,5.63
2018-02-17T04:38:02.965Z,5.23
2018-02-17T04:40:31.366Z,5.33
2018-02-17T04:42:58.974Z,5.37
2018-02-17T04:45:37.397Z,4.00
2018-02-17T04:48:06.765Z,4.67
2018-02-17T04:50:39.974Z,5.20
2018-02-17T04:53:13.095Z,4.07
2018-02-17T04:55:46.376Z,4.43
2018-02-17T04:58:28.824Z,5.07
2018-02-17T05:00:58.860Z,5.00
2018-02-17T05:03:43.117Z,5.93
2018-02-17T05:06:15.314Z,5.50
2018-02-17T05:08:43.474Z,5.93
2018-02-17T05:11:11.057Z,5.57
2018-02-17T05:13:39.806Z,5.73
2018-02-17T05:16:29.040Z,5.77
2018-02-17T05:18:56.728Z,4.70
2018-02-17T05:21:25.251Z,5.70
2018-02-17T05:24:07.709Z,6.80
2018-02-17T05:26:39.258Z,5.93
2018-02-17T05:29:08.038Z,5.90
2018-02-17T05:31:37.842Z,6.10
2018-02-17T05:34:09.903Z,6.23
2018-02-17T05:36:40.829Z,6.70
2018-02-17T05:39:08.979Z,6.23
2018-02-17T05:41:54.258Z,6.87
2018-02-17T05:44:24.328Z,6.57
2018-02-17T05:47:08.476Z,5.93
2018-02-17T05:49:39.530Z,6.33
2018-02-17T05:52:07.115Z,6.30
2018-02-17T05:54:35.908Z,6.30
2018-02-17T05:57:06.796Z,6.17
2018-02-17T05:59:36.350Z,6.20
2018-02-17T06:02:09.257Z,6.53
2018-02-17T06:04:40.729Z,6.93
2018-02-17T06:07:08.367Z,6.77
2018-02-17T06:09:35.935Z,7.27
2018-02-17T06:12:03.504Z,6.63
2018-02-17T06:14:31.084Z,6.20
2018-02-17T06:16:58.666Z,6.90
2018-02-17T06:19:26.526Z,7.00
2018-02-17T06:21:54.087Z,5.87
2018-02-17T06:24:21.681Z,5.70
2018-02-17T06:26:49.406Z,6.50
2018-02-17T06:29:16.989Z,5.60
2018-02-17T06:31:44.641Z,7.27
2018-02-17T06:34:12.229Z,6.60
2018-02-17T06:36:41.307Z,6.63
2018-02-17T06:39:08.898Z,6.60
2018-02-17T06:41:36.474Z,6.27
2018-02-17T06:44:04.070Z,5.93
2018-02-17T06:46:31.651Z,6.50
2018-02-17T06:48:59.236Z,7.07
2018-02-17T06:51:27.587Z,5.80
2018-02-17T06:53:55.222Z,6.07
2018-02-17T06:56:22.784Z,5.90
2018-02-17T06:58:50.361Z,5.13
2018-02-17T07:01:17.925Z,6.00
2018-02-17T07:03:46.424Z,6.77
2018-02-17T07:06:13.986Z,5.40
2018-02-17T07:08:41.569Z,5.00
2018-02-17T07:11:09.139Z,5.83
2018-02-17T07:13:36.729Z,6.27
2018-02-17T07:16:04.299Z,5.97
2018-02-17T07:18:31.894Z,6.30
2018-02-17T07:20:59.452Z,5.33
2018-02-17T07:23:27.025Z,5.17
2018-02-17T07:25:55.380Z,5.30
2018-02-17T07:28:22.946Z,4.87
2018-02-17T07:30:51.292Z,8.20
2018-02-17T07:33:18.873Z,5.83
2018-02-17T07:35:46.469Z,7.30
2018-02-17T07:38:14.039Z,6.10
2018-02-17T07:40:41.624Z,6.90
2018-02-17T07:43:09.189Z,6.07
2018-02-17T07:45:36.780Z,6.33
2018-02-17T07:48:04.383Z,7.20
2018-02-17T07:50:31.974Z,6.53
2018-02-17T07:52:59.556Z,8.00
2018-02-17T07:55:27.905Z,6.67
2018-02-17T07:57:55.465Z,8.10
2018-02-17T08:00:23.058Z,7.83
2018-02-17T08:02:50.625Z,7.57
2018-02-17T08:05:18.981Z,8.40
2018-02-17T08:07:46.542Z,6.80
2018-02-17T08:10:14.121Z,8.17
2018-02-17T08:12:42.454Z,6.80
2018-02-17T08:15:10.041Z,8.97
2018-02-17T08:17:38.376Z,8.83
2018-02-17T08:20:05.970Z,8.10
2018-02-17T08:22:34.302Z,7.30
2018-02-17T08:25:01.894Z,8.57
2018-02-17T08:27:29.466Z,9.43
2018-02-17T08:29:57.052Z,8.93
2018-02-17T08:32:25.287Z,10.30
2018-02-17T08:34:52.860Z,9.57
2018-02-17T08:37:20.440Z,7.87
2018-02-17T08:39:48.778Z,11.43
2018-02-17T08:42:16.360Z,9.77
2018-02-17T08:44:44.694Z,9.10
2018-02-17T08:47:12.292Z,10.20
2018-02-17T08:49:39.857Z,7.30
2018-02-17T08:52:07.499Z,10.50
2018-02-17T08:54:35.054Z,9.10
2018-02-17T08:57:02.722Z,11.37
2018-02-17T08:59:32.596Z,9.83
2018-02-17T09:02:00.313Z,9.17
2018-02-17T09:04:27.902Z,10.10
2018-02-17T09:06:56.485Z,10.20
2018-02-17T09:09:24.054Z,9.00
2018-02-17T09:11:51.645Z,9.40
2018-02-17T09:14:19.221Z,12.00
2018-02-17T09:16:47.510Z,11.37
2018-02-17T09:19:15.836Z,10.67
2018-02-17T09:21:43.441Z,11.67
2018-02-17T09:24:11.775Z,10.27
2018-02-17T09:26:39.369Z,15.70
2018-02-17T09:29:06.946Z,11.03
2018-02-17T09:31:35.630Z,12.17
2018-02-17T09:34:03.969Z,11.33
2018-02-17T09:36:31.566Z,12.07
2018-02-17T09:38:59.897Z,11.00
2018-02-17T09:41:27.556Z,13.57
2018-02-17T09:43:55.276Z,12.47
2018-02-17T09:46:22.870Z,10.90
2018-02-17T09:48:50.461Z,11.93
2018-02-17T09:51:18.040Z,12.40
2018-02-17T09:53:46.426Z,12.07
2018-02-17T09:56:14.766Z,13.77
2018-02-17T09:58:42.366Z,12.93
2018-02-17T10:01:10.692Z,14.77
2018-02-17T10:03:38.280Z,13.67
2018-02-17T10:06:05.939Z,15.07
2018-02-17T10:08:33.528Z,15.97
2018-02-17T10:11:01.110Z,13.73
2018-02-17T10:13:28.706Z,13.90
2018-02-17T10:15:57.249Z,12.30
2018-02-17T10:18:24.918Z,14.33
2018-02-17T10:20:52.495Z,15.37
2018-02-17T10:23:20.099Z,14.50
2018-02-17T10:25:47.666Z,13.40
2018-02-17T10:28:16.052Z,13.90
2018-02-17T10:30:43.617Z,14.27
2018-02-17T10:33:11.215Z,14.10
2018-02-17T10:35:38.790Z,15.30
2018-02-17T10:38:06.410Z,15.00
2018-02-17T10:40:33.977Z,15.67
2018-02-17T10:43:01.578Z,15.63
2018-02-17T10:45:29.155Z,16.80
2018-02-17T10:47:57.503Z,15.80
2018-02-17T10:50:25.123Z,15.70
2018-02-17T10:52:52.685Z,16.00
2018-02-17T10:55:20.274Z,15.30
2018-02-17T10:57:47.851Z,15.00
2018-02-17T11:00:15.446Z,14.30
2018-02-17T11:02:43.010Z,16.40
2018-02-17T11:05:10.607Z,14.03
2018-02-17T11:07:38.178Z,13.63
2018-02-17T11:10:05.772Z,12.27
2018-02-17T11:12:33.347Z,12.70
2018-02-17T11:15:00.933Z,11.43
2018-02-17T11:17:29.268Z,11.30
2018-02-17T11:19:56.858Z,11.40
2018-02-17T11:22:24.496Z,9.43
2018-02-17T11:24:52.100Z,8.90
2018-02-17T11:27:19.690Z,9.33
2018-02-17T11:29:48.058Z,9.87
2018-02-17T11:32:15.633Z,8.07
2018-02-17T11:34:43.246Z,9.33
2018-02-17T11:37:10.804Z,9.80
2018-02-17T11:39:38.397Z,9.33
2018-02-17T11:42:06.738Z,8.60
2018-02-17T11:44:34.329Z,8.20
2018-02-17T11:47:01.902Z,7.97
2018-02-17T11:49:29.499Z,9.77
2018-02-17T11:51:57.102Z,7.57
2018-02-17T11:54:24.679Z,7.33
2018-02-17T11:56:53.017Z,8.30
2018-02-17T11:59:20.606Z,8.30
2018-02-17T12:01:48.215Z,6.53
2018-02-17T12:04:16.125Z,7.40
2018-02-17T12:06:43.738Z,8.10
2018-02-17T12:09:12.159Z,8.40
2018-02-17T12:11:39.726Z,8.47
2018-02-17T12:14:07.321Z,7.50
2018-02-17T12:16:34.915Z,8.77
2018-02-17T12:19:02.486Z,9.70
2018-02-17T12:21:30.074Z,7.40
2018-02-17T12:23:58.418Z,7.00
2018-02-17T12:26:26.014Z,7.90
2018-02-17T12:28:53.587Z,8.43
2018-02-17T12:31:21.173Z,47.73
2018-02-17T12:33:48.737Z,9.20
2018-02-17T12:36:16.330Z,7.90
2018-02-17T12:38:43.902Z,7.90
2018-02-17T12:41:11.494Z,6.80
2018-02-17T12:43:39.066Z,7.00
2018-02-17T12:46:06.645Z,6.53
2018-02-17T12:48:34.969Z,6.90
2018-02-17T12:51:02.622Z,7.20
2018-02-17T12:53:30.963Z,6.80
2018-02-17T12:55:58.549Z,7.53
2018-02-17T12:58:26.105Z,5.87
2018-02-17T13:00:53.698Z,6.13
2018-02-17T13:03:21.306Z,5.33
2018-02-17T13:05:49.706Z,5.90
2018-02-17T13:08:17.282Z,5.80
2018-02-17T13:10:45.860Z,6.57
2018-02-17T13:13:13.456Z,6.87
2018-02-17T13:15:41.026Z,5.17
2018-02-17T13:18:08.609Z,6.03
2018-02-17T13:20:36.181Z,4.90
2018-02-17T13:23:03.765Z,6.33
2018-02-17T13:25:31.329Z,4.57
2018-02-17T13:27:58.922Z,4.23
2018-02-17T13:30:26.484Z,4.17
2018-02-17T13:32:54.081Z,13.50
2018-02-17T13:35:21.650Z,6.27
2018-02-17T13:37:49.246Z,4.13
2018-02-17T13:40:16.814Z,3.43
2018-02-17T13:42:44.400Z,4.27
2018-02-17T13:45:11.963Z,4.50
2018-02-17T13:47:39.549Z,4.10
2018-02-17T13:50:07.115Z,3.20
2018-02-17T13:52:34.713Z,3.30
2018-02-17T13:55:02.289Z,4.30
2018-02-17T13:57:29.886Z,4.60
2018-02-17T13:59:57.463Z,4.80
2018-02-17T14:02:25.053Z,4.10
2018-02-17T14:04:52.625Z,3.97
2018-02-17T14:07:20.994Z,3.37
2018-02-17T14:09:48.566Z,4.40
2018-02-17T14:12:16.187Z,3.83
2018-02-17T14:14:44.904Z,5.60
2018-02-17T14:17:13.282Z,3.90
2018-02-17T14:19:40.856Z,4.73
2018-02-17T14:22:08.441Z,5.43
2018-02-17T14:24:36.772Z,5.20
2018-02-17T14:27:04.345Z,4.60
2018-02-17T14:29:31.934Z,6.20
2018-02-17T14:32:00.281Z,6.60
2018-02-17T14:34:27.875Z,4.30
2018-02-17T14:36:55.432Z,4.30
2018-02-17T14:39:23.791Z,5.00
2018-02-17T14:41:51.353Z,4.13
2018-02-17T14:44:19.708Z,4.87
2018-02-17T14:46:47.278Z,19.73
2018-02-17T14:49:14.880Z,3.73
2018-02-17T14:51:42.442Z,3.20
2018-02-17T14:54:10.043Z,2.93
2018-02-17T14:56:37.619Z,2.67
2018-02-17T14:59:05.218Z,4.60
2018-02-17T15:01:32.781Z,3.47
2018-02-17T15:04:00.413Z,2.93
2018-02-17T15:06:28.757Z,2.40
2018-02-17T15:08:56.365Z,3.10
2018-02-17T15:11:24.054Z,3.20
2018-02-17T15:13:51.633Z,2.83
2018-02-17T15:16:19.188Z,2.70
2018-02-17T15:18:46.820Z,2.90
2018-02-17T15:21:14.387Z,2.47
2018-02-17T15:23:41.982Z,4.23
2018-02-17T15:26:09.561Z,2.87
2018-02-17T15:28:37.926Z,2.43
2018-02-17T15:31:05.514Z,3.73
2018-02-17T15:33:33.099Z,4.27
2018-02-17T15:36:00.663Z,3.50
2018-02-17T15:38:28.229Z,4.30
2018-02-17T15:40:55.820Z,3.43
2018-02-17T15:43:23.387Z,2.30
2018-02-17T15:45:50.994Z,2.30
2018-02-17T15:48:19.207Z,3.10
2018-02-17T15:50:47.738Z,3.33
2018-02-17T15:53:15.297Z,2.77
2018-02-17T15:55:42.872Z,2.83
2018-02-17T15:58:10.437Z,3.50
2018-02-17T16:00:38.021Z,3.53
2018-02-17T16:03:05.591Z,2.57
2018-02-17T16:05:33.181Z,4.10
2018-02-17T16:08:01.510Z,3.40
2018-02-17T16:10:29.110Z,3.00
2018-02-17T16:12:57.432Z,2.70
2018-02-17T16:15:25.022Z,3.53
2018-02-17T16:17:52.597Z,3.50
2018-02-17T16:20:20.958Z,13.70
2018-02-17T16:22:48.521Z,4.93
2018-02-17T16:25:16.124Z,3.27
2018-02-17T16:27:43.681Z,4.30
2018-02-17T16:30:11.264Z,4.87
2018-02-17T16:32:38.830Z,3.33
2018-02-17T16:35:06.427Z,4.07
2018-02-17T16:37:34.001Z,3.40
2018-02-17T16:40:02.364Z,3.47
2018-02-17T16:42:30.300Z,2.90
2018-02-17T16:44:58.019Z,2.97
2018-02-17T16:47:25.602Z,4.90
2018-02-17T16:49:53.170Z,4.10
2018-02-17T16:52:20.765Z,5.50
2018-02-17T16:54:48.333Z,4.10
2018-02-17T16:57:15.921Z,4.47
2018-02-17T16:59:44.589Z,4.27
2018-02-17T17:02:12.982Z,4.37
2018-02-17T17:04:40.555Z,3.77
2018-02-17T17:07:08.141Z,4.50
2018-02-17T17:09:35.703Z,4.17
2018-02-17T17:12:03.303Z,6.27
2018-02-17T17:14:30.874Z,4.67
2018-02-17T17:16:58.461Z,5.43
2018-02-17T17:19:26.026Z,6.23
2018-02-17T17:21:53.613Z,4.90
2018-02-17T17:24:21.174Z,5.60
2018-02-17T17:26:48.768Z,6.10
2018-02-17T17:29:16.384Z,4.60
2018-02-17T17:31:43.937Z,6.03
2018-02-17T17:34:11.512Z,6.53
2018-02-17T17:36:39.100Z,5.87
2018-02-17T17:39:06.660Z,6.97
2018-02-17T17:41:34.245Z,5.63
2018-02-17T17:44:01.813Z,5.80
2018-02-17T17:46:29.393Z,6.67
2018-02-17T17:48:56.954Z,5.90
2018-02-17T17:51:24.534Z,4.87
2018-02-17T17:53:52.864Z,5.50
2018-02-17T17:56:20.441Z,6.43
2018-02-17T17:58:47.997Z,5.30
2018-02-17T18:01:15.591Z,6.63
2018-02-17T18:03:43.946Z,7.70
2018-02-17T18:06:11.536Z,7.30
2018-02-17T18:08:39.129Z,5.80
2018-02-17T18:11:06.691Z,5.23
2018-02-17T18:13:34.317Z,5.63
2018-02-17T18:16:01.887Z,5.20
2018-02-17T18:18:29.481Z,6.20
2018-02-17T18:20:57.842Z,5.60
2018-02-17T18:23:25.434Z,6.27
2018-02-17T18:25:53.006Z,7.17
2018-02-17T18:28:20.610Z,6.00
2018-02-17T18:30:48.169Z,6.27
2018-02-17T18:33:15.756Z,6.60
2018-02-17T18:35:43.332Z,6.20
2018-02-17T18:38:10.921Z,5.90
2018-02-17T18:40:39.254Z,6.70
2018-02-17T18:43:06.868Z,6.50
2018-02-17T18:45:34.451Z,7.47
2018-02-17T18:48:02.037Z,6.40
2018-02-17T18:50:29.610Z,7.57
2018-02-17T18:52:57.196Z,7.80
2018-02-17T18:55:25.532Z,7.13
2018-02-17T18:57:53.126Z,8.47
2018-02-17T19:00:20.705Z,7.00
2018-02-17T19:02:48.324Z,6.40
2018-02-17T19:05:15.895Z,6.20
2018-02-17T19:07:44.254Z,7.30
2018-02-17T19:10:11.820Z,7.53
2018-02-17T19:12:39.410Z,7.50
2018-02-17T19:15:07.739Z,6.53
2018-02-17T19:17:36.074Z,6.30
2018-02-17T19:20:03.665Z,7.17
2018-02-17T19:22:31.224Z,6.03
2018-02-17T19:24:58.814Z,6.20
2018-02-17T19:27:26.405Z,6.00
2018-02-17T19:29:53.988Z,6.20
2018-02-17T19:32:21.549Z,6.53
2018-02-17T19:34:49.137Z,6.17
2018-02-17T19:37:16.701Z,6.50
2018-02-17T19:39:44.289Z,7.00
2018-02-17T19:42:12.613Z,6.40
2018-02-17T19:44:40.202Z,6.27
2018-02-17T19:47:07.775Z,5.43
2018-02-17T19:49:35.354Z,4.90
2018-02-17T19:52:02.921Z,5.77
2018-02-17T19:54:30.515Z,4.93
2018-02-17T19:56:58.072Z,5.63
2018-02-17T19:59:26.126Z,5.93
2018-02-17T20:01:53.701Z,5.93
2018-02-17T20:04:21.290Z,8.33
2018-02-17T20:06:48.858Z,5.50
2018-02-17T20:09:16.457Z,5.67
2018-02-17T20:11:44.021Z,5.80
2018-02-17T20:14:11.601Z,8.27
2018-02-17T20:16:39.167Z,6.93
2018-02-17T20:19:06.766Z,6.80
2018-02-17T20:21:35.110Z,6.40
2018-02-17T20:24:02.719Z,5.30
2018-02-17T20:26:30.282Z,6.43
2018-02-17T20:28:57.869Z,6.47
2018-02-17T20:31:25.444Z,5.47
2018-02-17T20:33:53.025Z,6.00
2018-02-17T20:36:20.598Z,7.80
2018-02-17T20:38:48.982Z,7.73
2018-02-17T20:41:16.545Z,7.57
2018-02-17T20:43:44.119Z,6.80
2018-02-17T20:46:11.718Z,6.87
2018-02-17T20:48:39.305Z,6.93
2018-02-17T20:51:06.902Z,8.00
2018-02-17T20:53:34.479Z,7.00
2018-02-17T20:56:02.066Z,7.80
2018-02-17T20:58:29.639Z,9.07
2018-02-17T21:00:58.008Z,8.87
2018-02-17T21:03:26.336Z,9.20
2018-02-17T21:05:53.923Z,9.87
2018-02-17T21:08:21.503Z,10.90
2018-02-17T21:10:49.144Z,11.43
2018-02-17T21:13:16.722Z,10.40
2018-02-17T21:15:44.319Z,10.77
2018-02-17T21:18:11.889Z,12.10
2018-02-17T21:20:39.519Z,13.97
2018-02-17T21:23:07.846Z,34.00
2018-02-17T21:25:35.442Z,12.97
2018-02-17T21:28:03.009Z,34.90
2018-02-17T21:30:30.611Z,10.83
2018-02-17T21:32:58.186Z,11.50
2018-02-17T21:35:25.927Z,11.13
2018-02-17T21:37:53.589Z,13.17
2018-02-17T21:40:21.186Z,14.50
2018-02-17T21:42:48.762Z,16.80
2018-02-17T21:45:17.112Z,16.13
2018-02-17T21:47:45.254Z,13.93
2018-02-17T21:50:12.850Z,11.97
2018-02-17T21:52:40.431Z,10.20
2018-02-17T21:55:08.789Z,10.60
2018-02-17T21:57:36.353Z,12.30
2018-02-17T22:00:03.938Z,12.40
2018-02-17T22:02:32.335Z,13.73
2018-02-17T22:04:59.926Z,17.83
2018-02-17T22:07:27.501Z,35.80
2018-02-17T22:09:55.072Z,28.57
2018-02-17T22:12:22.676Z,16.07
2018-02-17T22:14:50.251Z,12.77
2018-02-17T22:17:17.845Z,17.20
2018-02-17T22:19:45.412Z,21.20
2018-02-17T22:22:12.996Z,16.13
2018-02-17T22:24:40.561Z,14.90
2018-02-17T22:27:08.150Z,13.83
2018-02-17T22:29:35.717Z,13.90
2018-02-17T22:32:03.975Z,12.50
2018-02-17T22:34:31.566Z,12.37
2018-02-17T22:36:59.161Z,13.33
2018-02-17T22:39:26.744Z,14.37
2018-02-17T22:41:54.342Z,15.30
2018-02-17T22:44:21.914Z,21.27
2018-02-17T22:46:49.517Z,24.10
2018-02-17T22:49:17.090Z,25.67
2018-02-17T22:51:44.686Z,20.20
2018-02-17T22:54:12.256Z,19.20
2018-02-17T22:56:39.857Z,17.47
2018-02-17T22:59:07.433Z,23.87
2018-02-17T23:01:35.024Z,20.73
2018-02-17T23:04:02.602Z,19.50
2018-02-17T23:06:30.959Z,16.80
2018-02-17T23:08:58.533Z,17.00
2018-02-17T23:11:26.139Z,15.70
2018-02-17T23:13:53.705Z,17.20
2018-02-17T23:16:21.302Z,18.53
2018-02-17T23:18:49.664Z,17.87
2018-02-17T23:21:17.266Z,17.13
2018-02-17T23:23:44.843Z,15.83
2018-02-17T23:26:12.439Z,16.70
2018-02-17T23:28:40.074Z,16.00
2018-02-17T23:31:07.658Z,14.83
2018-02-17T23:33:35.250Z,24.10
2018-02-17T23:36:02.827Z,13.50
2018-02-17T23:38:30.497Z,14.80
2018-02-17T23:40:58.142Z,25.67
2018-02-17T23:43:25.727Z,16.27
2018-02-17T23:45:53.292Z,17.17
2018-02-17T23:48:20.890Z,16.03
2018-02-17T23:50:48.495Z,17.80
2018-02-17T23:53:16.091Z,15.30
2018-02-17T23:55:43.673Z,16.27
2018-02-17T23:58:11.257Z,13.50
